FACT/CPT METAR and TAF weather

Enter ICAO airport designator
Station Type Date Time Source
FACT METAR 2018/10/21 04:00 UTC NOAA

FACT 210400Z 24007KT CAVOK 14/05 Q1022 NOSIG


Station Type Date Time Source
FACT Decoded METAR 2018/10/21 04:00 UTC NOAA

Cape Town, Cape Town International Airport, South Africa (FACT) 33-59S 018-36E 0M
Oct 21, 2018 - 12:00 AM EDT / 2018.10.21 0400 UTC
Wind: from the WSW (240 degrees) at 8 MPH (7 KT):0
Visibility: greater than 7 mile(s):0
Temperature: 57 F (14 C)
Dew Point: 41 F (5 C)
Relative Humidity: 54%
Pressure (altimeter): 30.18 in. Hg (1022 hPa)
ob: FACT 210400Z 24007KT CAVOK 14/05 Q1022 NOSIG
cycle: 4

Station Type Date Time Source
FACT TAF 2018/10/21 06:11 UTC NOAA

TAF FACT 210400Z 2106/2212 VRB03KT CAVOK
BECMG 2110/2112 15012KT
BECMG 2117/2119 21008KT TX36/2212Z TN16/2204Z


Example: see airport list